sensor_id;sensor_type;location;lat;lon;timestamp;temperature;humidity
55135;DHT22;41031;44.750;11.308;2023-06-26T00:01:41;23.00;73.30
55135;DHT22;41031;44.750;11.308;2023-06-26T00:04:09;23.00;73.30
55135;DHT22;41031;44.750;11.308;2023-06-26T00:06:41;22.90;73.40
55135;DHT22;41031;44.750;11.308;2023-06-26T00:09:09;22.90;73.60
55135;DHT22;41031;44.750;11.308;2023-06-26T00:11:36;22.80;73.90
55135;DHT22;41031;44.750;11.308;2023-06-26T00:14:03;22.80;74.10
55135;DHT22;41031;44.750;11.308;2023-06-26T00:16:30;22.70;74.40
55135;DHT22;41031;44.750;11.308;2023-06-26T00:18:58;22.70;74.60
55135;DHT22;41031;44.750;11.308;2023-06-26T00:21:25;22.60;74.70
55135;DHT22;41031;44.750;11.308;2023-06-26T00:23:54;22.60;74.90
55135;DHT22;41031;44.750;11.308;2023-06-26T00:26:24;22.60;75.10
55135;DHT22;41031;44.750;11.308;2023-06-26T00:28:53;22.60;75.20
55135;DHT22;41031;44.750;11.308;2023-06-26T00:31:20;22.50;75.40
55135;DHT22;41031;44.750;11.308;2023-06-26T00:33:47;22.50;75.60
55135;DHT22;41031;44.750;11.308;2023-06-26T00:36:17;22.50;75.90
55135;DHT22;41031;44.750;11.308;2023-06-26T00:38:44;22.50;76.00
55135;DHT22;41031;44.750;11.308;2023-06-26T00:41:11;22.40;76.00
55135;DHT22;41031;44.750;11.308;2023-06-26T00:43:40;22.40;76.10
55135;DHT22;41031;44.750;11.308;2023-06-26T00:46:10;22.40;76.30
55135;DHT22;41031;44.750;11.308;2023-06-26T00:48:42;22.40;76.40
55135;DHT22;41031;44.750;11.308;2023-06-26T00:51:12;22.30;76.60
55135;DHT22;41031;44.750;11.308;2023-06-26T00:53:39;22.30;76.80
55135;DHT22;41031;44.750;11.308;2023-06-26T00:56:06;22.30;77.00
55135;DHT22;41031;44.750;11.308;2023-06-26T00:58:35;22.20;77.20
55135;DHT22;41031;44.750;11.308;2023-06-26T01:01:03;22.20;77.50
55135;DHT22;41031;44.750;11.308;2023-06-26T01:03:32;22.10;77.70
55135;DHT22;41031;44.750;11.308;2023-06-26T01:06:00;22.10;77.80
55135;DHT22;41031;44.750;11.308;2023-06-26T01:08:28;22.10;77.80
55135;DHT22;41031;44.750;11.308;2023-06-26T01:10:56;22.10;77.90
55135;DHT22;41031;44.750;11.308;2023-06-26T01:13:23;22.10;77.90
55135;DHT22;41031;44.750;11.308;2023-06-26T01:15:51;22.10;77.90
55135;DHT22;41031;44.750;11.308;2023-06-26T01:18:19;22.00;77.90
55135;DHT22;41031;44.750;11.308;2023-06-26T01:20:46;22.00;78.10
55135;DHT22;41031;44.750;11.308;2023-06-26T01:23:31;22.00;78.20
55135;DHT22;41031;44.750;11.308;2023-06-26T01:26:21;21.90;78.30
55135;DHT22;41031;44.750;11.308;2023-06-26T01:28:53;21.90;78.40
55135;DHT22;41031;44.750;11.308;2023-06-26T01:31:20;21.90;78.30
55135;DHT22;41031;44.750;11.308;2023-06-26T01:33:47;21.90;78.30
55135;DHT22;41031;44.750;11.308;2023-06-26T01:36:20;21.90;78.40
55135;DHT22;41031;44.750;11.308;2023-06-26T01:38:47;21.90;78.50
55135;DHT22;41031;44.750;11.308;2023-06-26T01:41:18;21.90;78.70
55135;DHT22;41031;44.750;11.308;2023-06-26T01:46:39;21.90;78.60
55135;DHT22;41031;44.750;11.308;2023-06-26T01:52:07;21.90;78.30
55135;DHT22;41031;44.750;11.308;2023-06-26T01:54:42;21.90;78.30
55135;DHT22;41031;44.750;11.308;2023-06-26T01:57:11;21.90;78.60
55135;DHT22;41031;44.750;11.308;2023-06-26T01:59:40;21.90;78.80
55135;DHT22;41031;44.750;11.308;2023-06-26T02:02:08;21.80;78.90
55135;DHT22;41031;44.750;11.308;2023-06-26T02:04:39;21.80;79.10
55135;DHT22;41031;44.750;11.308;2023-06-26T02:07:06;21.70;79.20
55135;DHT22;41031;44.750;11.308;2023-06-26T02:09:33;21.70;79.30
55135;DHT22;41031;44.750;11.308;2023-06-26T02:12:00;21.70;79.30
55135;DHT22;41031;44.750;11.308;2023-06-26T02:14:27;21.70;79.30
55135;DHT22;41031;44.750;11.308;2023-06-26T02:16:54;21.70;79.30
55135;DHT22;41031;44.750;11.308;2023-06-26T02:19:22;21.70;79.40
55135;DHT22;41031;44.750;11.308;2023-06-26T02:21:49;21.60;79.30
55135;DHT22;41031;44.750;11.308;2023-06-26T02:24:16;21.60;79.30
55135;DHT22;41031;44.750;11.308;2023-06-26T02:26:43;21.60;79.40
55135;DHT22;41031;44.750;11.308;2023-06-26T02:29:11;21.60;79.50
55135;DHT22;41031;44.750;11.308;2023-06-26T02:31:39;21.60;79.70
55135;DHT22;41031;44.750;11.308;2023-06-26T02:34:07;21.60;79.70
55135;DHT22;41031;44.750;11.308;2023-06-26T02:36:33;21.60;79.70
55135;DHT22;41031;44.750;11.308;2023-06-26T02:39:04;21.50;79.70
55135;DHT22;41031;44.750;11.308;2023-06-26T02:41:33;21.50;79.70
55135;DHT22;41031;44.750;11.308;2023-06-26T02:44:00;21.50;79.70
55135;DHT22;41031;44.750;11.308;2023-06-26T02:46:28;21.50;79.70
55135;DHT22;41031;44.750;11.308;2023-06-26T02:48:56;21.50;79.60
55135;DHT22;41031;44.750;11.308;2023-06-26T02:51:24;21.50;79.60
55135;DHT22;41031;44.750;11.308;2023-06-26T02:53:52;21.50;79.70
55135;DHT22;41031;44.750;11.308;2023-06-26T02:56:20;21.50;79.80
55135;DHT22;41031;44.750;11.308;2023-06-26T02:58:47;21.40;79.90
55135;DHT22;41031;44.750;11.308;2023-06-26T03:01:14;21.40;80.00
55135;DHT22;41031;44.750;11.308;2023-06-26T03:03:44;21.40;80.20
55135;DHT22;41031;44.750;11.308;2023-06-26T03:06:16;21.40;80.30
55135;DHT22;41031;44.750;11.308;2023-06-26T03:08:44;21.40;80.50
55135;DHT22;41031;44.750;11.308;2023-06-26T03:11:14;21.40;80.50
55135;DHT22;41031;44.750;11.308;2023-06-26T03:13:41;21.30;80.50
55135;DHT22;41031;44.750;11.308;2023-06-26T03:16:08;21.30;80.60
55135;DHT22;41031;44.750;11.308;2023-06-26T03:18:35;21.20;80.50
55135;DHT22;41031;44.750;11.308;2023-06-26T03:21:02;21.30;80.70
55135;DHT22;41031;44.750;11.308;2023-06-26T03:23:30;21.20;80.70
55135;DHT22;41031;44.750;11.308;2023-06-26T03:25:57;21.20;80.90
55135;DHT22;41031;44.750;11.308;2023-06-26T03:28:26;21.20;81.20
55135;DHT22;41031;44.750;11.308;2023-06-26T03:30:53;21.20;81.40
55135;DHT22;41031;44.750;11.308;2023-06-26T03:33:21;21.20;81.50
55135;DHT22;41031;44.750;11.308;2023-06-26T03:35:48;21.20;82.20
55135;DHT22;41031;44.750;11.308;2023-06-26T03:38:15;21.20;81.50
55135;DHT22;41031;44.750;11.308;2023-06-26T03:40:44;21.20;81.60
55135;DHT22;41031;44.750;11.308;2023-06-26T03:43:11;21.20;81.70
55135;DHT22;41031;44.750;11.308;2023-06-26T03:45:46;21.10;81.70
55135;DHT22;41031;44.750;11.308;2023-06-26T03:48:13;21.20;81.80
55135;DHT22;41031;44.750;11.308;2023-06-26T03:50:41;21.10;81.80
55135;DHT22;41031;44.750;11.308;2023-06-26T03:53:10;21.10;81.70
55135;DHT22;41031;44.750;11.308;2023-06-26T03:55:40;21.20;81.50
55135;DHT22;41031;44.750;11.308;2023-06-26T03:58:07;21.10;82.10
55135;DHT22;41031;44.750;11.308;2023-06-26T04:00:34;21.10;81.40
55135;DHT22;41031;44.750;11.308;2023-06-26T04:03:01;21.10;81.40
55135;DHT22;41031;44.750;11.308;2023-06-26T04:05:30;21.10;81.40
55135;DHT22;41031;44.750;11.308;2023-06-26T04:07:58;21.10;81.50
55135;DHT22;41031;44.750;11.308;2023-06-26T04:10:25;21.10;81.80
55135;DHT22;41031;44.750;11.308;2023-06-26T04:12:52;21.10;82.10
55135;DHT22;41031;44.750;11.308;2023-06-26T04:15:19;21.10;82.20
55135;DHT22;41031;44.750;11.308;2023-06-26T04:17:47;21.10;82.20
55135;DHT22;41031;44.750;11.308;2023-06-26T04:20:14;21.10;82.40
55135;DHT22;41031;44.750;11.308;2023-06-26T04:22:42;21.10;82.70
55135;DHT22;41031;44.750;11.308;2023-06-26T04:25:12;21.10;83.00
55135;DHT22;41031;44.750;11.308;2023-06-26T04:27:40;21.10;83.00
55135;DHT22;41031;44.750;11.308;2023-06-26T04:30:08;21.20;83.00
55135;DHT22;41031;44.750;11.308;2023-06-26T04:32:36;21.20;83.10
55135;DHT22;41031;44.750;11.308;2023-06-26T04:35:05;21.20;83.80
55135;DHT22;41031;44.750;11.308;2023-06-26T04:37:33;21.30;83.10
55135;DHT22;41031;44.750;11.308;2023-06-26T04:40:00;21.30;83.10
55135;DHT22;41031;44.750;11.308;2023-06-26T04:42:27;21.40;83.20
55135;DHT22;41031;44.750;11.308;2023-06-26T04:44:54;21.40;83.10
55135;DHT22;41031;44.750;11.308;2023-06-26T04:47:21;21.50;83.10
55135;DHT22;41031;44.750;11.308;2023-06-26T04:49:48;21.50;83.10
55135;DHT22;41031;44.750;11.308;2023-06-26T04:52:15;21.50;83.20
55135;DHT22;41031;44.750;11.308;2023-06-26T04:54:42;21.60;83.40
55135;DHT22;41031;44.750;11.308;2023-06-26T04:57:09;21.60;83.30
55135;DHT22;41031;44.750;11.308;2023-06-26T04:59:38;21.70;83.40
55135;DHT22;41031;44.750;11.308;2023-06-26T05:02:05;21.70;83.50
55135;DHT22;41031;44.750;11.308;2023-06-26T05:04:32;21.80;83.70
55135;DHT22;41031;44.750;11.308;2023-06-26T05:06:59;21.80;83.70
55135;DHT22;41031;44.750;11.308;2023-06-26T05:09:27;21.90;83.70
55135;DHT22;41031;44.750;11.308;2023-06-26T05:11:56;22.00;83.50
55135;DHT22;41031;44.750;11.308;2023-06-26T05:14:23;22.10;83.20
55135;DHT22;41031;44.750;11.308;2023-06-26T05:16:51;22.20;83.10
55135;DHT22;41031;44.750;11.308;2023-06-26T05:19:18;22.30;82.90
55135;DHT22;41031;44.750;11.308;2023-06-26T05:21:47;22.40;82.70
55135;DHT22;41031;44.750;11.308;2023-06-26T05:24:15;22.50;82.70
55135;DHT22;41031;44.750;11.308;2023-06-26T05:26:43;22.60;82.50
55135;DHT22;41031;44.750;11.308;2023-06-26T05:29:10;22.80;82.10
55135;DHT22;41031;44.750;11.308;2023-06-26T05:31:40;22.90;81.70
55135;DHT22;41031;44.750;11.308;2023-06-26T05:34:10;23.00;81.30
55135;DHT22;41031;44.750;11.308;2023-06-26T05:36:38;23.20;81.10
55135;DHT22;41031;44.750;11.308;2023-06-26T05:39:08;23.30;81.00
55135;DHT22;41031;44.750;11.308;2023-06-26T05:41:35;23.40;80.80
55135;DHT22;41031;44.750;11.308;2023-06-26T05:44:02;23.60;80.40
55135;DHT22;41031;44.750;11.308;2023-06-26T05:46:29;23.70;79.40
55135;DHT22;41031;44.750;11.308;2023-06-26T05:48:56;23.70;79.10
55135;DHT22;41031;44.750;11.308;2023-06-26T05:51:24;23.80;79.10
55135;DHT22;41031;44.750;11.308;2023-06-26T05:53:51;23.90;79.50
55135;DHT22;41031;44.750;11.308;2023-06-26T05:56:18;24.00;79.40
55135;DHT22;41031;44.750;11.308;2023-06-26T05:58:49;24.10;79.70
55135;DHT22;41031;44.750;11.308;2023-06-26T06:01:16;24.20;78.70
55135;DHT22;41031;44.750;11.308;2023-06-26T06:03:43;24.20;77.50
55135;DHT22;41031;44.750;11.308;2023-06-26T06:06:11;24.20;77.60
55135;DHT22;41031;44.750;11.308;2023-06-26T06:08:38;24.30;77.90
55135;DHT22;41031;44.750;11.308;2023-06-26T06:11:05;24.50;78.70
55135;DHT22;41031;44.750;11.308;2023-06-26T06:13:32;24.60;77.70
55135;DHT22;41031;44.750;11.308;2023-06-26T06:15:59;24.70;76.90
55135;DHT22;41031;44.750;11.308;2023-06-26T06:18:26;24.80;76.90
55135;DHT22;41031;44.750;11.308;2023-06-26T06:20:53;25.00;76.80
55135;DHT22;41031;44.750;11.308;2023-06-26T06:23:20;25.10;76.30
55135;DHT22;41031;44.750;11.308;2023-06-26T06:25:47;25.30;75.70
55135;DHT22;41031;44.750;11.308;2023-06-26T06:28:14;25.40;74.30
55135;DHT22;41031;44.750;11.308;2023-06-26T06:30:43;25.50;73.90
55135;DHT22;41031;44.750;11.308;2023-06-26T06:33:13;25.70;74.10
55135;DHT22;41031;44.750;11.308;2023-06-26T06:35:45;25.80;74.90
55135;DHT22;41031;44.750;11.308;2023-06-26T06:38:12;26.00;74.30
55135;DHT22;41031;44.750;11.308;2023-06-26T06:40:39;26.20;73.50
55135;DHT22;41031;44.750;11.308;2023-06-26T06:43:07;26.40;72.40
55135;DHT22;41031;44.750;11.308;2023-06-26T06:45:37;26.60;72.60
55135;DHT22;41031;44.750;11.308;2023-06-26T06:48:05;26.70;71.70
55135;DHT22;41031;44.750;11.308;2023-06-26T06:50:32;26.90;71.20
55135;DHT22;41031;44.750;11.308;2023-06-26T06:52:59;27.00;71.30
55135;DHT22;41031;44.750;11.308;2023-06-26T06:55:26;27.10;71.00
55135;DHT22;41031;44.750;11.308;2023-06-26T06:57:53;27.30;71.10
55135;DHT22;41031;44.750;11.308;2023-06-26T07:00:20;27.50;70.80
55135;DHT22;41031;44.750;11.308;2023-06-26T07:02:47;27.70;70.90
55135;DHT22;41031;44.750;11.308;2023-06-26T07:05:16;27.90;70.80
55135;DHT22;41031;44.750;11.308;2023-06-26T07:07:43;28.10;70.30
55135;DHT22;41031;44.750;11.308;2023-06-26T07:10:13;28.30;69.90
55135;DHT22;41031;44.750;11.308;2023-06-26T07:12:43;28.50;68.40
55135;DHT22;41031;44.750;11.308;2023-06-26T07:15:12;28.70;68.00
55135;DHT22;41031;44.750;11.308;2023-06-26T07:17:39;28.90;67.80
55135;DHT22;41031;44.750;11.308;2023-06-26T07:20:07;29.10;67.30
55135;DHT22;41031;44.750;11.308;2023-06-26T07:22:36;29.20;66.80
55135;DHT22;41031;44.750;11.308;2023-06-26T07:25:03;29.40;66.90
55135;DHT22;41031;44.750;11.308;2023-06-26T07:27:31;29.50;66.50
55135;DHT22;41031;44.750;11.308;2023-06-26T07:30:00;29.70;65.80
55135;DHT22;41031;44.750;11.308;2023-06-26T07:32:27;29.90;65.30
55135;DHT22;41031;44.750;11.308;2023-06-26T07:34:54;29.90;65.00
55135;DHT22;41031;44.750;11.308;2023-06-26T07:37:23;30.10;64.80
55135;DHT22;41031;44.750;11.308;2023-06-26T07:39:50;30.30;64.00
55135;DHT22;41031;44.750;11.308;2023-06-26T07:42:39;30.40;63.40
55135;DHT22;41031;44.750;11.308;2023-06-26T07:45:07;30.50;61.80
55135;DHT22;41031;44.750;11.308;2023-06-26T07:47:39;30.60;60.80
55135;DHT22;41031;44.750;11.308;2023-06-26T07:50:06;30.70;60.80
55135;DHT22;41031;44.750;11.308;2023-06-26T07:52:34;30.80;61.10
55135;DHT22;41031;44.750;11.308;2023-06-26T07:55:01;30.90;61.40
55135;DHT22;41031;44.750;11.308;2023-06-26T07:57:29;31.00;60.10
55135;DHT22;41031;44.750;11.308;2023-06-26T07:59:56;31.10;59.50
55135;DHT22;41031;44.750;11.308;2023-06-26T08:02:23;31.30;58.90
55135;DHT22;41031;44.750;11.308;2023-06-26T08:04:50;31.30;58.50
55135;DHT22;41031;44.750;11.308;2023-06-26T08:07:18;31.40;57.80
55135;DHT22;41031;44.750;11.308;2023-06-26T08:09:45;31.50;57.90
55135;DHT22;41031;44.750;11.308;2023-06-26T08:12:15;31.60;56.70
55135;DHT22;41031;44.750;11.308;2023-06-26T08:14:44;31.60;56.30
55135;DHT22;41031;44.750;11.308;2023-06-26T08:17:13;31.70;55.90
55135;DHT22;41031;44.750;11.308;2023-06-26T08:19:40;31.70;55.60
55135;DHT22;41031;44.750;11.308;2023-06-26T08:22:08;31.80;55.40
55135;DHT22;41031;44.750;11.308;2023-06-26T08:24:35;31.80;56.40
55135;DHT22;41031;44.750;11.308;2023-06-26T08:27:04;31.90;56.80
55135;DHT22;41031;44.750;11.308;2023-06-26T08:29:31;32.00;55.80
55135;DHT22;41031;44.750;11.308;2023-06-26T08:31:58;32.10;53.60
55135;DHT22;41031;44.750;11.308;2023-06-26T08:34:27;32.10;54.10
55135;DHT22;41031;44.750;11.308;2023-06-26T08:36:54;32.30;53.90
55135;DHT22;41031;44.750;11.308;2023-06-26T08:39:21;32.40;53.00
55135;DHT22;41031;44.750;11.308;2023-06-26T08:41:48;32.50;52.60
55135;DHT22;41031;44.750;11.308;2023-06-26T08:44:16;32.60;52.40
55135;DHT22;41031;44.750;11.308;2023-06-26T08:46:43;32.70;51.40
55135;DHT22;41031;44.750;11.308;2023-06-26T08:49:20;32.80;51.70
55135;DHT22;41031;44.750;11.308;2023-06-26T08:51:52;32.80;52.10
55135;DHT22;41031;44.750;11.308;2023-06-26T08:54:27;32.90;52.70
55135;DHT22;41031;44.750;11.308;2023-06-26T08:56:56;33.00;52.00
55135;DHT22;41031;44.750;11.308;2023-06-26T08:59:24;33.10;51.90
55135;DHT22;41031;44.750;11.308;2023-06-26T09:01:52;33.10;51.20
55135;DHT22;41031;44.750;11.308;2023-06-26T09:04:19;33.30;50.50
55135;DHT22;41031;44.750;11.308;2023-06-26T09:06:46;33.40;49.70
55135;DHT22;41031;44.750;11.308;2023-06-26T09:09:13;33.50;49.10
55135;DHT22;41031;44.750;11.308;2023-06-26T09:11:41;33.60;49.10
55135;DHT22;41031;44.750;11.308;2023-06-26T09:14:08;33.60;48.00
55135;DHT22;41031;44.750;11.308;2023-06-26T09:16:40;33.70;48.10
55135;DHT22;41031;44.750;11.308;2023-06-26T09:19:10;33.70;48.80
55135;DHT22;41031;44.750;11.308;2023-06-26T09:21:42;33.80;49.50
55135;DHT22;41031;44.750;11.308;2023-06-26T09:24:10;33.90;49.10
55135;DHT22;41031;44.750;11.308;2023-06-26T09:26:38;34.00;49.00
55135;DHT22;41031;44.750;11.308;2023-06-26T09:29:06;34.10;48.70
55135;DHT22;41031;44.750;11.308;2023-06-26T09:31:34;34.20;48.30
55135;DHT22;41031;44.750;11.308;2023-06-26T09:34:08;34.30;47.40
55135;DHT22;41031;44.750;11.308;2023-06-26T09:36:35;34.30;47.80
55135;DHT22;41031;44.750;11.308;2023-06-26T09:39:07;34.40;48.20
55135;DHT22;41031;44.750;11.308;2023-06-26T09:41:43;34.50;46.00
55135;DHT22;41031;44.750;11.308;2023-06-26T09:44:13;34.50;46.40
55135;DHT22;41031;44.750;11.308;2023-06-26T09:46:41;34.50;44.80
55135;DHT22;41031;44.750;11.308;2023-06-26T09:49:09;34.40;45.20
55135;DHT22;41031;44.750;11.308;2023-06-26T09:51:41;34.40;45.90
55135;DHT22;41031;44.750;11.308;2023-06-26T09:54:09;34.50;46.10
55135;DHT22;41031;44.750;11.308;2023-06-26T09:56:37;34.60;46.30
55135;DHT22;41031;44.750;11.308;2023-06-26T09:59:05;34.70;45.70
55135;DHT22;41031;44.750;11.308;2023-06-26T10:01:33;34.80;45.40
55135;DHT22;41031;44.750;11.308;2023-06-26T10:04:03;35.00;45.20
55135;DHT22;41031;44.750;11.308;2023-06-26T10:06:36;35.00;44.10
55135;DHT22;41031;44.750;11.308;2023-06-26T10:09:04;35.10;44.50
55135;DHT22;41031;44.750;11.308;2023-06-26T10:12:02;35.10;45.10
55135;DHT22;41031;44.750;11.308;2023-06-26T10:14:37;35.20;44.10
55135;DHT22;41031;44.750;11.308;2023-06-26T10:17:13;35.30;42.70
55135;DHT22;41031;44.750;11.308;2023-06-26T10:19:44;35.20;41.70
55135;DHT22;41031;44.750;11.308;2023-06-26T10:22:17;35.10;43.30
55135;DHT22;41031;44.750;11.308;2023-06-26T10:24:46;35.10;44.50
55135;DHT22;41031;44.750;11.308;2023-06-26T10:27:17;35.00;44.70
55135;DHT22;41031;44.750;11.308;2023-06-26T10:29:54;35.10;44.70
55135;DHT22;41031;44.750;11.308;2023-06-26T10:32:25;35.20;44.20
55135;DHT22;41031;44.750;11.308;2023-06-26T10:34:53;35.30;44.00
55135;DHT22;41031;44.750;11.308;2023-06-26T10:37:47;35.40;43.90
55135;DHT22;41031;44.750;11.308;2023-06-26T10:40:21;35.50;44.00
55135;DHT22;41031;44.750;11.308;2023-06-26T10:42:51;35.60;44.10
55135;DHT22;41031;44.750;11.308;2023-06-26T10:45:33;35.70;43.50
55135;DHT22;41031;44.750;11.308;2023-06-26T10:48:04;35.80;43.00
55135;DHT22;41031;44.750;11.308;2023-06-26T10:50:32;35.80;43.20
55135;DHT22;41031;44.750;11.308;2023-06-26T10:55:37;35.80;44.50
55135;DHT22;41031;44.750;11.308;2023-06-26T10:58:04;35.80;43.70
55135;DHT22;41031;44.750;11.308;2023-06-26T11:00:51;35.80;43.60
55135;DHT22;41031;44.750;11.308;2023-06-26T11:03:23;35.90;43.40
55135;DHT22;41031;44.750;11.308;2023-06-26T11:06:12;36.00;42.90
55135;DHT22;41031;44.750;11.308;2023-06-26T11:11:17;36.00;41.10
55135;DHT22;41031;44.750;11.308;2023-06-26T11:13:46;35.90;41.50
55135;DHT22;41031;44.750;11.308;2023-06-26T11:16:14;35.80;42.30
55135;DHT22;41031;44.750;11.308;2023-06-26T11:18:42;35.80;41.20
55135;DHT22;41031;44.750;11.308;2023-06-26T11:21:12;35.80;42.20
55135;DHT22;41031;44.750;11.308;2023-06-26T11:23:45;35.80;41.20
55135;DHT22;41031;44.750;11.308;2023-06-26T11:26:21;35.70;40.70
55135;DHT22;41031;44.750;11.308;2023-06-26T11:28:55;35.50;41.60
55135;DHT22;41031;44.750;11.308;2023-06-26T11:31:29;35.50;43.60
55135;DHT22;41031;44.750;11.308;2023-06-26T11:34:01;35.50;42.20
55135;DHT22;41031;44.750;11.308;2023-06-26T11:36:30;35.50;41.10
55135;DHT22;41031;44.750;11.308;2023-06-26T11:39:00;35.40;42.40
55135;DHT22;41031;44.750;11.308;2023-06-26T11:41:30;35.40;44.00
55135;DHT22;41031;44.750;11.308;2023-06-26T11:44:01;35.50;44.30
55135;DHT22;41031;44.750;11.308;2023-06-26T11:46:31;35.70;43.60
55135;DHT22;41031;44.750;11.308;2023-06-26T11:49:05;35.70;43.00
55135;DHT22;41031;44.750;11.308;2023-06-26T11:51:33;35.90;42.30
55135;DHT22;41031;44.750;11.308;2023-06-26T11:54:01;36.00;42.10
55135;DHT22;41031;44.750;11.308;2023-06-26T11:56:32;36.10;41.70
55135;DHT22;41031;44.750;11.308;2023-06-26T11:59:04;36.20;41.30
55135;DHT22;41031;44.750;11.308;2023-06-26T12:01:44;36.20;40.40
55135;DHT22;41031;44.750;11.308;2023-06-26T12:04:14;36.30;39.80
55135;DHT22;41031;44.750;11.308;2023-06-26T12:06:46;36.30;40.30
55135;DHT22;41031;44.750;11.308;2023-06-26T12:09:16;36.30;41.20
55135;DHT22;41031;44.750;11.308;2023-06-26T12:11:46;36.40;41.80
55135;DHT22;41031;44.750;11.308;2023-06-26T12:14:15;36.40;40.70
55135;DHT22;41031;44.750;11.308;2023-06-26T12:16:43;36.30;40.10
55135;DHT22;41031;44.750;11.308;2023-06-26T12:19:11;36.30;40.30
55135;DHT22;41031;44.750;11.308;2023-06-26T12:24:08;36.30;39.50
55135;DHT22;41031;44.750;11.308;2023-06-26T12:26:35;36.30;38.80
55135;DHT22;41031;44.750;11.308;2023-06-26T12:29:07;36.20;39.80
55135;DHT22;41031;44.750;11.308;2023-06-26T12:31:35;36.20;40.90
55135;DHT22;41031;44.750;11.308;2023-06-26T12:34:14;36.20;41.20
55135;DHT22;41031;44.750;11.308;2023-06-26T12:36:46;36.20;41.20
55135;DHT22;41031;44.750;11.308;2023-06-26T12:39:20;36.30;41.10
55135;DHT22;41031;44.750;11.308;2023-06-26T12:44:25;36.30;41.20
55135;DHT22;41031;44.750;11.308;2023-06-26T12:47:00;36.30;40.10
55135;DHT22;41031;44.750;11.308;2023-06-26T12:49:34;36.20;39.00
55135;DHT22;41031;44.750;11.308;2023-06-26T12:52:03;36.20;40.80
55135;DHT22;41031;44.750;11.308;2023-06-26T12:54:31;36.20;39.90
55135;DHT22;41031;44.750;11.308;2023-06-26T12:56:58;36.10;39.30
55135;DHT22;41031;44.750;11.308;2023-06-26T12:59:26;36.10;38.80
55135;DHT22;41031;44.750;11.308;2023-06-26T13:01:53;36.00;40.00
55135;DHT22;41031;44.750;11.308;2023-06-26T13:04:20;35.90;42.10
55135;DHT22;41031;44.750;11.308;2023-06-26T13:06:47;35.90;42.70
55135;DHT22;41031;44.750;11.308;2023-06-26T13:09:16;36.00;42.10
55135;DHT22;41031;44.750;11.308;2023-06-26T13:11:43;36.00;41.30
55135;DHT22;41031;44.750;11.308;2023-06-26T13:14:10;36.00;42.00
55135;DHT22;41031;44.750;11.308;2023-06-26T13:16:39;36.00;41.70
55135;DHT22;41031;44.750;11.308;2023-06-26T13:19:06;36.00;41.10
55135;DHT22;41031;44.750;11.308;2023-06-26T13:21:34;36.00;41.00
55135;DHT22;41031;44.750;11.308;2023-06-26T13:24:02;36.00;40.80
55135;DHT22;41031;44.750;11.308;2023-06-26T13:26:32;36.10;41.10
55135;DHT22;41031;44.750;11.308;2023-06-26T13:29:04;36.00;39.10
55135;DHT22;41031;44.750;11.308;2023-06-26T13:31:32;36.00;39.50
55135;DHT22;41031;44.750;11.308;2023-06-26T13:34:00;35.90;39.10
55135;DHT22;41031;44.750;11.308;2023-06-26T13:36:27;35.80;40.00
55135;DHT22;41031;44.750;11.308;2023-06-26T13:38:54;35.80;40.80
55135;DHT22;41031;44.750;11.308;2023-06-26T13:41:25;35.80;39.40
55135;DHT22;41031;44.750;11.308;2023-06-26T13:43:52;35.70;40.70
55135;DHT22;41031;44.750;11.308;2023-06-26T13:46:27;35.70;41.00
55135;DHT22;41031;44.750;11.308;2023-06-26T13:48:54;35.70;42.20
55135;DHT22;41031;44.750;11.308;2023-06-26T13:51:22;35.60;41.20
55135;DHT22;41031;44.750;11.308;2023-06-26T13:53:49;35.60;41.70
55135;DHT22;41031;44.750;11.308;2023-06-26T13:56:16;35.60;40.40
55135;DHT22;41031;44.750;11.308;2023-06-26T13:58:44;35.50;39.60
55135;DHT22;41031;44.750;11.308;2023-06-26T14:01:11;35.40;39.10
55135;DHT22;41031;44.750;11.308;2023-06-26T14:03:40;35.30;39.70
55135;DHT22;41031;44.750;11.308;2023-06-26T14:06:07;35.30;41.20
55135;DHT22;41031;44.750;11.308;2023-06-26T14:08:34;35.30;42.50
55135;DHT22;41031;44.750;11.308;2023-06-26T14:11:04;35.30;41.60
55135;DHT22;41031;44.750;11.308;2023-06-26T14:13:32;35.30;41.70
55135;DHT22;41031;44.750;11.308;2023-06-26T14:15:59;35.30;40.30
55135;DHT22;41031;44.750;11.308;2023-06-26T14:18:26;35.20;40.20
55135;DHT22;41031;44.750;11.308;2023-06-26T14:20:55;35.20;40.50
55135;DHT22;41031;44.750;11.308;2023-06-26T14:23:22;35.20;40.60
55135;DHT22;41031;44.750;11.308;2023-06-26T14:25:49;35.10;40.60
55135;DHT22;41031;44.750;11.308;2023-06-26T14:28:16;35.10;41.50
55135;DHT22;41031;44.750;11.308;2023-06-26T14:30:43;35.10;42.40
55135;DHT22;41031;44.750;11.308;2023-06-26T14:33:10;35.10;43.10
55135;DHT22;41031;44.750;11.308;2023-06-26T14:35:37;35.10;41.70
55135;DHT22;41031;44.750;11.308;2023-06-26T14:38:04;35.00;41.10
55135;DHT22;41031;44.750;11.308;2023-06-26T14:40:32;35.10;41.40
55135;DHT22;41031;44.750;11.308;2023-06-26T14:42:59;35.10;41.60
55135;DHT22;41031;44.750;11.308;2023-06-26T14:45:27;35.10;41.10
55135;DHT22;41031;44.750;11.308;2023-06-26T14:47:54;35.10;39.90
55135;DHT22;41031;44.750;11.308;2023-06-26T14:50:21;35.00;40.70
55135;DHT22;41031;44.750;11.308;2023-06-26T14:52:48;35.00;40.90
55135;DHT22;41031;44.750;11.308;2023-06-26T14:55:16;35.00;41.00
55135;DHT22;41031;44.750;11.308;2023-06-26T14:57:43;35.00;41.10
55135;DHT22;41031;44.750;11.308;2023-06-26T15:00:12;35.00;41.50
55135;DHT22;41031;44.750;11.308;2023-06-26T15:02:39;34.90;41.80
55135;DHT22;41031;44.750;11.308;2023-06-26T15:05:06;34.90;42.00
55135;DHT22;41031;44.750;11.308;2023-06-26T15:07:33;34.90;42.10
55135;DHT22;41031;44.750;11.308;2023-06-26T15:10:01;34.80;42.80
55135;DHT22;41031;44.750;11.308;2023-06-26T15:12:28;34.80;42.90
55135;DHT22;41031;44.750;11.308;2023-06-26T15:14:55;34.80;42.50
55135;DHT22;41031;44.750;11.308;2023-06-26T15:17:22;34.70;40.90
55135;DHT22;41031;44.750;11.308;2023-06-26T15:19:49;34.60;40.80
55135;DHT22;41031;44.750;11.308;2023-06-26T15:22:22;34.50;41.90
55135;DHT22;41031;44.750;11.308;2023-06-26T15:24:49;34.50;41.80
55135;DHT22;41031;44.750;11.308;2023-06-26T15:27:16;34.40;40.50
55135;DHT22;41031;44.750;11.308;2023-06-26T15:29:46;34.40;40.70
55135;DHT22;41031;44.750;11.308;2023-06-26T15:32:15;34.40;41.50
55135;DHT22;41031;44.750;11.308;2023-06-26T15:34:46;34.40;43.00
55135;DHT22;41031;44.750;11.308;2023-06-26T15:37:13;34.30;44.20
55135;DHT22;41031;44.750;11.308;2023-06-26T15:39:43;34.30;43.30
55135;DHT22;41031;44.750;11.308;2023-06-26T15:42:11;34.20;43.70